Los Molinos, California
Current Conditions -  °F | °C
As of 7:24 PM on Saturday 20 Dec 2014 (Local Time) from KRBL Reporting Station
Light Rain Light Rain  
Wind Chill: 12°   Ceiling: 900
Heat Index: 12°   Visibility: 10mi
Dew Point: 11°   Wind: 16mph
Humidity: 90%   Direction: 150°SSE
Pressure: 30.19"   Gusts: NA
Location:  40.02°N, 122.1°W
Report Text: KRBL 210324Z AUTO 15014KT 10SM -RA OVC009 12/11 A3019 RMK AO2 RAB0256 CIG 007V014 P0000 T01220106
Loading
Personal Weather Stations






























Interactive Weather Map New forecast layout! Learn more

10-Day Weather Forecast

Advertisements
Track Severe Weather on mobile